createdAt,value
2023-01-11T00:02:40.029Z,67.70
2023-01-11T00:07:42.632Z,67.93
2023-01-11T00:12:45.541Z,67.66
2023-01-11T00:17:48.117Z,67.71
2023-01-11T00:22:51.236Z,67.54
2023-01-11T00:27:54.724Z,67.73
2023-01-11T00:32:58.983Z,67.74
2023-01-11T00:38:01.632Z,67.77
2023-01-11T00:43:22.387Z,67.77
2023-01-11T00:48:25.014Z,67.47
2023-01-11T00:53:27.468Z,68.01
2023-01-11T00:58:29.920Z,67.84
2023-01-11T01:03:32.524Z,67.77
2023-01-11T01:08:35.885Z,67.58
2023-01-11T01:13:56.635Z,67.63
2023-01-11T01:19:00.323Z,67.55
2023-01-11T01:24:02.917Z,67.49
2023-01-11T01:29:08.544Z,67.86
2023-01-11T01:34:12.530Z,67.55
2023-01-11T01:39:15.323Z,67.98
2023-01-11T01:44:54.230Z,67.50
2023-01-11T01:49:58.788Z,67.99
2023-01-11T01:55:05.974Z,67.79
2023-01-11T02:00:11.186Z,67.84
2023-01-11T02:05:16.259Z,67.80
2023-01-11T02:10:25.440Z,67.32
2023-01-11T02:15:29.418Z,67.83
2023-01-11T02:20:34.867Z,67.39
2023-01-11T02:26:05.399Z,67.55
2023-01-11T02:31:29.747Z,67.48
2023-01-11T02:36:54.844Z,67.20
2023-01-11T02:42:47.665Z,66.86
2023-01-11T02:48:05.109Z,66.70
2023-01-11T02:53:22.777Z,66.63
2023-01-11T02:58:30.733Z,66.35
2023-01-11T03:03:37.631Z,66.21
2023-01-11T03:09:03.031Z,66.24
2023-01-11T03:14:34.805Z,65.91
2023-01-11T03:19:53.872Z,65.73
2023-01-11T03:25:04.538Z,65.75
2023-01-11T03:30:17.576Z,65.55
2023-01-11T03:35:42.352Z,65.74
2023-01-11T03:40:54.531Z,65.60
2023-01-11T03:46:11.234Z,65.58
2023-01-11T03:51:18.129Z,65.83
2023-01-11T03:56:26.566Z,66.09
2023-01-11T04:01:30.119Z,66.18
2023-01-11T04:06:36.529Z,65.73
2023-01-11T04:11:39.173Z,66.26
2023-01-11T04:16:41.783Z,65.82
2023-01-11T04:21:44.400Z,66.02
2023-01-11T04:26:47.059Z,66.20
2023-01-11T04:31:49.989Z,66.15
2023-01-11T04:36:53.412Z,65.94
2023-01-11T04:42:14.833Z,66.07
2023-01-11T04:47:19.057Z,66.54
2023-01-11T04:52:22.214Z,66.36
2023-01-11T04:57:25.611Z,66.67
2023-01-11T05:02:28.115Z,65.75
2023-01-11T05:07:30.743Z,65.77
2023-01-11T05:12:33.277Z,65.53
2023-01-11T05:17:36.203Z,65.37
2023-01-11T05:22:38.719Z,64.88
2023-01-11T05:27:42.304Z,63.92
2023-01-11T05:32:44.793Z,64.32
2023-01-11T05:37:47.492Z,64.49
2023-01-11T05:42:50.120Z,63.96
2023-01-11T05:47:54.077Z,64.15
2023-01-11T05:52:56.632Z,64.19
2023-01-11T05:57:59.538Z,63.81
2023-01-11T06:03:02.649Z,63.54
2023-01-11T06:08:05.436Z,63.57
2023-01-11T06:13:26.885Z,63.89
2023-01-11T06:18:33.563Z,63.96
2023-01-11T06:23:38.981Z,63.90
2023-01-11T06:28:42.291Z,64.17
2023-01-11T06:33:45.321Z,63.70
2023-01-11T06:38:48.738Z,64.22
2023-01-11T06:49:10.918Z,63.77
2023-01-11T06:54:13.537Z,64.60
2023-01-11T06:59:16.124Z,62.98
2023-01-11T07:04:20.056Z,63.44
2023-01-11T07:09:25.620Z,62.43
2023-01-11T07:14:28.803Z,61.70
2023-01-11T07:19:31.464Z,61.73
2023-01-11T07:24:34.177Z,58.57
2023-01-11T07:29:36.687Z,51.96
2023-01-11T07:34:39.186Z,49.41
2023-01-11T07:39:43.747Z,47.24
2023-01-11T07:44:46.733Z,45.50
2023-01-11T07:49:52.363Z,44.87
2023-01-11T07:54:54.886Z,42.40
2023-01-11T07:59:57.475Z,41.43
2023-01-11T08:05:02.239Z,39.10
2023-01-11T08:10:07.760Z,39.97
2023-01-11T08:15:12.771Z,38.61
2023-01-11T08:20:15.683Z,39.89
2023-01-11T08:25:18.751Z,38.69
2023-01-11T08:30:21.388Z,39.25
2023-01-11T08:35:26.050Z,39.00
2023-01-11T08:40:30.318Z,37.25
2023-01-11T08:45:34.355Z,39.59
2023-01-11T08:50:39.133Z,37.43
2023-01-11T09:01:05.729Z,38.26
2023-01-11T09:06:08.335Z,37.26
2023-01-11T09:11:30.746Z,36.88
2023-01-11T09:16:33.377Z,36.95
2023-01-11T09:21:36.735Z,36.75
2023-01-11T09:26:41.714Z,36.14
2023-01-11T09:31:44.248Z,36.05
2023-01-11T09:36:49.124Z,36.09
2023-01-11T09:42:07.681Z,35.17
2023-01-11T09:47:46.231Z,35.50
2023-01-11T09:53:10.068Z,35.84
2023-01-11T09:58:28.790Z,35.49
2023-01-11T10:03:52.014Z,36.19
2023-01-11T10:18:33.076Z,37.52
2023-01-11T10:20:44.918Z,37.53
2023-01-11T10:25:51.910Z,37.65
2023-01-11T10:30:59.092Z,39.25
2023-01-11T10:36:21.689Z,40.26
2023-01-11T10:41:38.828Z,40.37
2023-01-11T10:46:45.628Z,41.33
2023-01-11T10:51:49.689Z,42.88
2023-01-11T11:08:17.894Z,47.88
2023-01-11T11:13:43.386Z,48.44
2023-01-11T11:18:46.166Z,50.16
2023-01-11T11:23:56.129Z,51.41
2023-01-11T11:29:11.210Z,53.54
2023-01-11T11:34:20.039Z,53.85
2023-01-11T11:39:30.891Z,55.22
2023-01-11T11:44:33.848Z,56.03
2023-01-11T11:49:38.721Z,57.10
2023-01-11T11:54:53.115Z,58.28
2023-01-11T12:00:03.892Z,59.46
2023-01-11T12:05:10.722Z,59.71
2023-01-11T12:10:20.057Z,60.50
2023-01-11T12:15:30.841Z,61.20
2023-01-11T12:20:39.360Z,61.38
2023-01-11T12:26:13.232Z,62.42
2023-01-11T12:31:31.356Z,63.11
2023-01-11T12:36:51.453Z,63.22
2023-01-11T12:42:21.141Z,63.43
2023-01-11T12:47:56.153Z,64.70
2023-01-11T12:53:26.460Z,64.52
2023-01-11T12:58:53.223Z,65.18
2023-01-11T13:04:34.471Z,65.31
2023-01-11T13:09:49.927Z,66.11
2023-01-11T13:15:10.547Z,66.30
2023-01-11T13:20:58.739Z,67.35
2023-01-11T13:26:16.910Z,66.99
2023-01-11T13:31:20.683Z,67.42
2023-01-11T13:36:28.127Z,67.44
2023-01-11T13:41:41.257Z,68.28
2023-01-11T13:46:55.649Z,68.78
2023-01-11T13:52:11.479Z,68.50
2023-01-11T13:57:41.845Z,68.40
2023-01-11T14:02:50.257Z,69.29
2023-01-11T14:08:01.166Z,68.85
2023-01-11T14:13:35.372Z,69.30
2023-01-11T14:18:41.838Z,69.73
2023-01-11T14:23:49.692Z,69.87
2023-01-11T14:30:00.861Z,70.05
2023-01-11T14:35:24.624Z,70.29
2023-01-11T14:40:39.280Z,70.91
2023-01-11T14:46:01.050Z,70.59
2023-01-11T14:51:30.670Z,70.54
2023-01-11T14:56:47.300Z,70.83
2023-01-11T15:02:17.104Z,70.58
2023-01-11T15:07:52.211Z,70.33
2023-01-11T15:13:43.029Z,70.77
2023-01-11T15:18:55.864Z,71.07
2023-01-11T15:23:59.554Z,71.13
2023-01-11T15:29:03.420Z,71.11
2023-01-11T15:34:25.988Z,70.90
2023-01-11T15:39:54.556Z,71.22
2023-01-11T15:45:28.027Z,71.51
2023-01-11T15:51:02.648Z,71.74
2023-01-11T15:56:31.599Z,71.41
2023-01-11T16:01:52.767Z,71.77
2023-01-11T16:07:03.206Z,71.98
2023-01-11T16:12:28.220Z,71.46
2023-01-11T16:17:31.525Z,72.05
2023-01-11T16:22:37.652Z,72.12
2023-01-11T16:27:40.557Z,71.73
2023-01-11T16:32:43.608Z,71.96
2023-01-11T16:37:51.741Z,71.99
2023-01-11T16:42:54.323Z,71.97
2023-01-11T16:48:14.010Z,72.24
2023-01-11T16:53:17.995Z,71.70
2023-01-11T16:58:34.172Z,72.16
2023-01-11T17:03:43.978Z,71.63
2023-01-11T17:08:55.544Z,71.46
2023-01-11T17:14:32.109Z,71.39
2023-01-11T17:19:37.773Z,71.53
2023-01-11T17:24:59.980Z,71.69
2023-01-11T17:30:06.199Z,71.90
2023-01-11T17:35:34.393Z,71.60
2023-01-11T17:40:58.892Z,71.72
2023-01-11T17:46:03.122Z,71.45
2023-01-11T17:51:06.377Z,71.53
2023-01-11T17:56:38.036Z,71.28
2023-01-11T18:01:47.721Z,71.95
2023-01-11T18:06:54.735Z,72.11
2023-01-11T18:12:21.056Z,71.80
2023-01-11T18:17:32.577Z,71.99
2023-01-11T18:22:42.142Z,71.92
2023-01-11T18:27:46.776Z,72.07
2023-01-11T18:32:49.412Z,71.51
2023-01-11T18:37:52.174Z,71.83
2023-01-11T18:42:54.828Z,71.43
2023-01-11T18:47:59.113Z,72.23
2023-01-11T18:53:02.481Z,72.54
2023-01-11T18:58:05.044Z,72.37
2023-01-11T19:03:09.670Z,72.39
2023-01-11T19:08:12.264Z,72.28
2023-01-11T19:13:19.540Z,71.97
2023-01-11T19:18:22.967Z,72.23
2023-01-11T19:23:25.625Z,71.79
2023-01-11T19:28:29.594Z,72.12
2023-01-11T19:33:32.272Z,72.27
2023-01-11T19:38:35.100Z,72.14
2023-01-11T19:43:44.929Z,72.19
2023-01-11T19:48:47.585Z,72.68
2023-01-11T19:53:50.189Z,72.39
2023-01-11T20:04:16.843Z,72.61
2023-01-11T20:09:38.245Z,72.69
2023-01-11T20:14:41.011Z,72.67
2023-01-11T20:19:43.782Z,72.15
2023-01-11T20:25:12.705Z,72.53
2023-01-11T20:30:15.999Z,72.41
2023-01-11T20:35:18.721Z,72.09
2023-01-11T20:40:21.300Z,71.99
2023-01-11T20:45:23.995Z,72.21
2023-01-11T20:50:26.643Z,72.38
2023-01-11T20:55:47.341Z,71.98
2023-01-11T21:00:50.132Z,71.88
2023-01-11T21:05:56.532Z,72.02
2023-01-11T21:11:10.558Z,71.73
2023-01-11T21:16:15.983Z,72.02
2023-01-11T21:21:34.203Z,71.61
2023-01-11T21:26:36.828Z,71.70
2023-01-11T21:31:40.260Z,71.77
2023-01-11T21:36:43.923Z,71.68
2023-01-11T21:41:55.573Z,71.89
2023-01-11T21:47:06.593Z,71.82
2023-01-11T21:52:09.308Z,72.18
2023-01-11T21:57:30.407Z,72.01
2023-01-11T22:02:33.047Z,72.00
2023-01-11T22:07:37.965Z,72.52
2023-01-11T22:12:40.566Z,72.42
2023-01-11T22:17:43.496Z,72.32
2023-01-11T22:22:46.273Z,72.40
2023-01-11T22:27:48.807Z,72.21
2023-01-11T22:32:51.356Z,72.24
2023-01-11T22:37:53.926Z,72.22
2023-01-11T22:42:57.255Z,72.45
2023-01-11T22:47:59.839Z,72.99
2023-01-11T22:53:02.459Z,72.82
2023-01-11T22:58:06.759Z,72.79
2023-01-11T23:03:11.764Z,73.21
2023-01-11T23:08:15.037Z,73.10
2023-01-11T23:13:46.616Z,73.25
2023-01-11T23:18:49.241Z,73.46
2023-01-11T23:24:11.127Z,73.40
2023-01-11T23:29:13.942Z,73.74
2023-01-11T23:34:16.747Z,74.10
2023-01-11T23:39:19.529Z,74.56
2023-01-11T23:44:40.165Z,74.37
2023-01-11T23:49:43.989Z,75.01
2023-01-11T23:54:47.389Z,74.46
2023-01-11T23:59:50.094Z,74.98
